Terminal Aerodrome Forecast
Issued by NWS

Home | Current Version | Previous Version | Text Only | Print | Product List | Glossary On
Versions: 1 2 3 4 5 6 7 8 9 10 11 12 13 14 15
000
FTUS46 KLOX 041128
TAFSBP
TAF
KSBP 041128Z 0412/0512 VRB03KT 6SM BR BKN004
     FM041300 VRB03KT 4SM BR OVC003
     FM041600 VRB03KT 6SM HZ OVC006
     FM041900 28007KT P6SM SCT010
     FM042200 30012KT P6SM SKC
     FM050600 30006KT P6SM BKN005
     FM050900 VRB03KT 4SM BR BKN004=

USA.gov is the U.S. government's official web portal to all federal, state and local government web resources and services.